Mobile, AL

10:09 AM CDT on August 27, 2014 (GMT -0500)
Westlawn | Change Station
CLOSE
Current Station
Personal Weather Station
Location: Mobile, AL
Elevation: 43 ft
Nearby Weather Stations

Elev 43 ft 30.68 °N, 88.12 °W | Updated 4 minutes ago

Clear
Clear
87.4 °F
Feels Like 98 °F
N
7.0
Wind Variable Wind from North
Gusts 7.0 mph

Today
High -- | Low -- °F
--% Chance of Precip.
Yesterday
High -- | Low -- °F
Precip. -- in
6:25 AM 7:21 PM
Waxing Crescent, 4% visible
Pressure 30.06 in
Visibility 10.0 miles
Clouds Clear
Heat Index 98 °F
Dew Point 76 °F
Humidity 69%
Rainfall 0.00 in
Snow Depth Not available.
UV 6 out of 12
Pollen 8.60 out of 12
Ozone Good
Flu Activity Not available.
METAR KBFM 271453Z 07005KT 10SM CLR 29/23 A3006 RMK AO2 SLP177 T02890233 51012

More Conditions Fewer Conditions

Pressure 30.06 in
Visibility 10.0 miles
Clouds Clear
Heat Index 98 °F
Dew Point 76 °F
Humidity 69%
Rainfall 0.00 in
Snow Depth Not available.
UV 6 out of 12
Pollen 8.60 out of 12
Ozone Good
Flu Activity Not available.
METAR KBFM 271453Z 07005KT 10SM CLR 29/23 A3006 RMK AO2 SLP177 T02890233 51012

More Conditions Fewer Conditions

10-Day Weather Forecast

Almanac

Astronomy

Aug. 27, 2014 Rise Set
Actual Time 6:25 AM CDT 7:21 PM CDT
Civil Twilight 6:01 AM CDT 7:45 PM CDT
Nautical Twilight 5:31 AM CDT 8:15 PM CDT
Astronomical Twilight 5:01 AM CDT 8:45 PM CDT
Moon 8:10 AM CDT 8:25 PM CDT
Length of Visible Light 13h 44m
Length of Day
12h 55m
Tomorrow will be 1m 44s shorter.
Waxing Crescent, 4% of the Moon is Illuminated
Today
Waxing Crescent
Sep 2
First Quarter
Sep 8
Full
Sep 15
Last Quarter
Sep 24
New

Today's Extremes

State Highs State Lows

Community

WunderPhotos

Upload Photos

1,747,703 photos uploaded!

Nearby

Air Quality

  Air Quality AQ Index Pollutant
Yesterday Good
OZONE
Current Good
OZONE
Wednesday Good
OZONE

Snow Depth

Station Depth Elevation
No new snow has been reported.

Earthquake Activity

City Distance Mag. Time & Date
No recent earthquake activity has been reported nearby.
Minimum magnitude displayed is 2.5.

Coastal Water Temperatures

Place Temperature
Mobile State Docks, AL 84.9 °F
Coast Guard Sector Mobile, AL 84.9 °F

Nearby Weather Stations